Time;durP1;ratioP1;P1;durP2;ratioP2;P2;SDS_P1;SDS_P2;PMS_P1;PMS_P2;Temp;Humidity;BMP_temperature;BMP_pressure;BME280_temperature;BME280_humidity;BME280_pressure;Samples;Min_cycle;Max_cycle;Signal;HPM_P1;HPM_P2
2021/12/17 00:00:17;;;;;;;;;;;3.1;82.2;;;;;;;;;
2021/12/17 00:05:12;;;;;;;;;;;3.2;82.2;;;;;;;;;
2021/12/17 00:10:09;;;;;;;;;;;3.2;82.5;;;;;;;;;
2021/12/17 00:15:08;;;;;;;;;;;3.0;82.7;;;;;;;;;
2021/12/17 00:20:48;;;;;;;;;;;3.2;82.3;;;;;;;;;
2021/12/17 00:40:26;;;;;;;;;;;2.8;81.3;;;;;;;;;
2021/12/17 00:50:21;;;;;;;;;;;3.1;81.1;;;;;;;;;
2021/12/17 00:55:08;;;;;;;;;;;3.0;81.8;;;;;;;;;
2021/12/17 01:00:10;;;;;;;;;;;3.0;82.1;;;;;;;;;
2021/12/17 01:05:10;;;;;;;;;;;3.0;82.2;;;;;;;;;
2021/12/17 01:10:10;;;;;;;;;;;3.1;82.1;;;;;;;;;
2021/12/17 01:15:11;;;;;;;;;;;3.1;82.2;;;;;;;;;
2021/12/17 01:20:25;;;;;;;;;;;3.1;81.2;;;;;;;;;
2021/12/17 01:25:16;;;;;;;;;;;3.1;81.3;;;;;;;;;
2021/12/17 01:35:27;;;;;;;;;;;3.2;81.4;;;;;;;;;
2021/12/17 01:45:08;;;;;;;;;;;3.3;81.1;;;;;;;;;
2021/12/17 02:00:10;;;;;;;;;;;3.2;81.5;;;;;;;;;
2021/12/17 02:05:08;;;;;;;;;;;3.3;81.9;;;;;;;;;
2021/12/17 02:10:42;;;;;;;;;;;3.3;81.8;;;;;;;;;
2021/12/17 02:20:28;;;;;;;;;;;3.3;81.4;;;;;;;;;
2021/12/17 02:30:27;;;;;;;;;;;3.3;81.0;;;;;;;;;
2021/12/17 02:35:32;;;;;;;;;;;3.4;80.8;;;;;;;;;
2021/12/17 02:40:20;;;;;;;;;;;3.3;81.3;;;;;;;;;
2021/12/17 02:50:09;;;;;;;;;;;3.3;80.8;;;;;;;;;
2021/12/17 02:55:08;;;;;;;;;;;3.4;80.8;;;;;;;;;
2021/12/17 03:00:08;;;;;;;;;;;3.4;81.1;;;;;;;;;
2021/12/17 03:05:08;;;;;;;;;;;3.5;81.0;;;;;;;;;
2021/12/17 03:10:10;;;;;;;;;;;3.5;80.8;;;;;;;;;
2021/12/17 03:15:16;;;;;;;;;;;3.5;81.1;;;;;;;;;
2021/12/17 03:25:08;;;;;;;;;;;3.6;80.9;;;;;;;;;
2021/12/17 03:30:08;;;;;;;;;;;3.7;80.7;;;;;;;;;
2021/12/17 03:40:08;;;;;;;;;;;3.7;80.6;;;;;;;;;
2021/12/17 03:45:08;;;;;;;;;;;3.7;80.7;;;;;;;;;
2021/12/17 03:50:08;;;;;;;;;;;3.7;81.0;;;;;;;;;
2021/12/17 03:55:08;;;;;;;;;;;3.7;81.6;;;;;;;;;
2021/12/17 04:00:09;;;;;;;;;;;3.8;81.6;;;;;;;;;
2021/12/17 04:10:08;;;;;;;;;;;3.8;81.4;;;;;;;;;
2021/12/17 04:15:08;;;;;;;;;;;3.8;81.9;;;;;;;;;
2021/12/17 04:20:08;;;;;;;;;;;3.8;82.0;;;;;;;;;
2021/12/17 04:25:07;;;;;;;;;;;3.8;81.4;;;;;;;;;
2021/12/17 04:30:08;;;;;;;;;;;3.8;81.5;;;;;;;;;
2021/12/17 04:35:08;;;;;;;;;;;3.9;81.2;;;;;;;;;
2021/12/17 04:40:08;;;;;;;;;;;3.8;81.6;;;;;;;;;
2021/12/17 04:45:07;;;;;;;;;;;3.9;80.9;;;;;;;;;
2021/12/17 05:00:11;;;;;;;;;;;4.0;80.2;;;;;;;;;
2021/12/17 05:05:09;;;;;;;;;;;4.0;80.4;;;;;;;;;
2021/12/17 05:10:16;;;;;;;;;;;3.9;79.3;;;;;;;;;
2021/12/17 05:20:24;;;;;;;;;;;3.9;78.7;;;;;;;;;
2021/12/17 05:25:08;;;;;;;;;;;3.9;78.6;;;;;;;;;
2021/12/17 05:30:08;;;;;;;;;;;3.8;78.9;;;;;;;;;
2021/12/17 05:35:08;;;;;;;;;;;3.7;78.9;;;;;;;;;
2021/12/17 05:40:08;;;;;;;;;;;3.7;79.1;;;;;;;;;
2021/12/17 05:45:20;;;;;;;;;;;3.9;78.8;;;;;;;;;
2021/12/17 05:50:08;;;;;;;;;;;3.9;79.6;;;;;;;;;
2021/12/17 05:55:08;;;;;;;;;;;3.9;79.3;;;;;;;;;
2021/12/17 06:00:08;;;;;;;;;;;4.0;79.8;;;;;;;;;
2021/12/17 06:05:07;;;;;;;;;;;4.0;79.7;;;;;;;;;
2021/12/17 06:10:09;;;;;;;;;;;3.8;79.2;;;;;;;;;
2021/12/17 06:15:09;;;;;;;;;;;4.1;78.5;;;;;;;;;
2021/12/17 06:20:09;;;;;;;;;;;4.2;77.9;;;;;;;;;
2021/12/17 06:25:10;;;;;;;;;;;4.2;77.8;;;;;;;;;
2021/12/17 06:30:09;;;;;;;;;;;4.2;77.7;;;;;;;;;
2021/12/17 06:35:08;;;;;;;;;;;4.2;77.3;;;;;;;;;
2021/12/17 06:45:17;;;;;;;;;;;4.2;77.2;;;;;;;;;
2021/12/17 06:55:23;;;;;;;;;;;4.1;77.4;;;;;;;;;
2021/12/17 07:00:17;;;;;;;;;;;4.1;76.8;;;;;;;;;
2021/12/17 07:10:17;;;;;;;;;;;4.0;75.8;;;;;;;;;
2021/12/17 07:32:04;;;;;;;;;;;3.7;75.1;;;;;;;;;
2021/12/17 07:35:38;;;;;;;;;;;3.5;75.5;;;;;;;;;
2021/12/17 07:40:10;;;;;;;;;;;3.5;75.4;;;;;;;;;
2021/12/17 07:45:08;;;;;;;;;;;3.4;75.3;;;;;;;;;
2021/12/17 07:50:08;;;;;;;;;;;3.4;76.3;;;;;;;;;
2021/12/17 07:55:09;;;;;;;;;;;3.5;75.3;;;;;;;;;
2021/12/17 08:00:13;;;;;;;;;;;3.6;74.4;;;;;;;;;
2021/12/17 08:05:08;;;;;;;;;;;3.8;74.8;;;;;;;;;
2021/12/17 08:10:08;;;;;;;;;;;4.1;73.9;;;;;;;;;
2021/12/17 08:15:10;;;;;;;;;;;4.2;73.5;;;;;;;;;
2021/12/17 08:25:12;;;;;;;;;;;4.7;71.6;;;;;;;;;
2021/12/17 08:30:22;;;;;;;;;;;5.1;70.8;;;;;;;;;
2021/12/17 08:35:09;;;;;;;;;;;5.5;69.4;;;;;;;;;
2021/12/17 08:40:08;;;;;;;;;;;5.7;67.3;;;;;;;;;
2021/12/17 08:45:08;;;;;;;;;;;6.0;67.5;;;;;;;;;
2021/12/17 08:50:10;;;;;;;;;;;6.2;66.4;;;;;;;;;
2021/12/17 08:55:10;;;;;;;;;;;6.6;65.1;;;;;;;;;
2021/12/17 09:00:09;;;;;;;;;;;6.9;64.4;;;;;;;;;
2021/12/17 09:05:13;;;;;;;;;;;7.7;61.9;;;;;;;;;
2021/12/17 09:10:09;;;;;;;;;;;8.8;58.0;;;;;;;;;
2021/12/17 09:15:08;;;;;;;;;;;10.6;51.6;;;;;;;;;
2021/12/17 09:20:08;;;;;;;;;;;11.5;50.2;;;;;;;;;
2021/12/17 09:25:10;;;;;;;;;;;12.6;47.2;;;;;;;;;
2021/12/17 09:30:09;;;;;;;;;;;13.3;44.2;;;;;;;;;
2021/12/17 09:35:08;;;;;;;;;;;12.4;45.2;;;;;;;;;
2021/12/17 09:40:10;;;;;;;;;;;12.2;45.8;;;;;;;;;
2021/12/17 09:45:14;;;;;;;;;;;11.7;47.2;;;;;;;;;
2021/12/17 09:50:09;;;;;;;;;;;12.2;45.8;;;;;;;;;
2021/12/17 09:55:08;;;;;;;;;;;12.0;45.9;;;;;;;;;
2021/12/17 10:00:10;;;;;;;;;;;11.8;46.1;;;;;;;;;
2021/12/17 10:05:11;;;;;;;;;;;12.6;44.4;;;;;;;;;
2021/12/17 10:10:08;;;;;;;;;;;13.2;44.3;;;;;;;;;
2021/12/17 10:15:09;;;;;;;;;;;13.6;42.4;;;;;;;;;
2021/12/17 10:20:08;;;;;;;;;;;15.2;40.3;;;;;;;;;
2021/12/17 10:25:09;;;;;;;;;;;16.9;36.0;;;;;;;;;
2021/12/17 10:30:14;;;;;;;;;;;18.1;33.7;;;;;;;;;
2021/12/17 10:35:09;;;;;;;;;;;17.4;34.9;;;;;;;;;
2021/12/17 10:40:18;;;;;;;;;;;18.0;34.4;;;;;;;;;
2021/12/17 10:45:12;;;;;;;;;;;18.9;32.2;;;;;;;;;
2021/12/17 10:50:08;;;;;;;;;;;17.9;33.5;;;;;;;;;
2021/12/17 10:55:09;;;;;;;;;;;18.4;33.1;;;;;;;;;
2021/12/17 11:00:09;;;;;;;;;;;18.7;32.5;;;;;;;;;
2021/12/17 11:05:12;;;;;;;;;;;18.4;33.2;;;;;;;;;
2021/12/17 11:10:07;;;;;;;;;;;17.8;34.5;;;;;;;;;
2021/12/17 11:15:10;;;;;;;;;;;17.4;34.6;;;;;;;;;
2021/12/17 11:20:09;;;;;;;;;;;17.5;34.5;;;;;;;;;
2021/12/17 11:25:08;;;;;;;;;;;18.1;34.1;;;;;;;;;
2021/12/17 11:30:09;;;;;;;;;;;17.7;34.8;;;;;;;;;
2021/12/17 11:35:08;;;;;;;;;;;16.8;36.1;;;;;;;;;
2021/12/17 11:40:12;;;;;;;;;;;16.6;37.0;;;;;;;;;
2021/12/17 11:45:23;;;;;;;;;;;15.9;37.7;;;;;;;;;
2021/12/17 11:50:10;;;;;;;;;;;15.4;38.8;;;;;;;;;
2021/12/17 11:55:21;;;;;;;;;;;14.7;42.4;;;;;;;;;
2021/12/17 12:00:13;;;;;;;;;;;14.1;43.3;;;;;;;;;
2021/12/17 12:05:08;;;;;;;;;;;14.2;42.8;;;;;;;;;
2021/12/17 12:10:23;;;;;;;;;;;14.1;43.4;;;;;;;;;
2021/12/17 12:15:27;;;;;;;;;;;13.8;45.0;;;;;;;;;
2021/12/17 12:20:36;;;;;;;;;;;13.9;44.0;;;;;;;;;
2021/12/17 12:25:30;;;;;;;;;;;13.5;45.4;;;;;;;;;
2021/12/17 12:30:08;;;;;;;;;;;12.7;47.6;;;;;;;;;
2021/12/17 12:35:09;;;;;;;;;;;13.0;46.9;;;;;;;;;
2021/12/17 12:40:16;;;;;;;;;;;12.9;46.6;;;;;;;;;
2021/12/17 12:45:10;;;;;;;;;;;12.5;47.1;;;;;;;;;
2021/12/17 12:50:10;;;;;;;;;;;11.6;48.7;;;;;;;;;
2021/12/17 12:55:13;;;;;;;;;;;11.0;50.4;;;;;;;;;
2021/12/17 13:00:10;;;;;;;;;;;10.4;52.8;;;;;;;;;
2021/12/17 13:05:09;;;;;;;;;;;10.4;52.7;;;;;;;;;
2021/12/17 13:10:10;;;;;;;;;;;10.0;53.9;;;;;;;;;
2021/12/17 13:15:17;;;;;;;;;;;9.6;54.9;;;;;;;;;
2021/12/17 13:20:41;;;;;;;;;;;9.4;56.2;;;;;;;;;
2021/12/17 13:25:22;;;;;;;;;;;9.3;55.6;;;;;;;;;
2021/12/17 13:30:08;;;;;;;;;;;9.2;56.4;;;;;;;;;
2021/12/17 13:35:14;;;;;;;;;;;9.0;56.7;;;;;;;;;
2021/12/17 13:40:09;;;;;;;;;;;8.9;57.0;;;;;;;;;
2021/12/17 13:45:10;;;;;;;;;;;8.8;57.3;;;;;;;;;
2021/12/17 13:50:09;;;;;;;;;;;8.7;58.2;;;;;;;;;
2021/12/17 13:55:10;;;;;;;;;;;8.6;58.1;;;;;;;;;
2021/12/17 14:00:10;;;;;;;;;;;8.6;58.6;;;;;;;;;
2021/12/17 14:05:09;;;;;;;;;;;8.6;58.2;;;;;;;;;
2021/12/17 14:10:09;;;;;;;;;;;8.6;58.7;;;;;;;;;
2021/12/17 14:15:09;;;;;;;;;;;8.5;58.9;;;;;;;;;
2021/12/17 14:20:10;;;;;;;;;;;8.4;59.3;;;;;;;;;
2021/12/17 14:25:25;;;;;;;;;;;8.4;59.4;;;;;;;;;
2021/12/17 14:30:08;;;;;;;;;;;8.3;59.9;;;;;;;;;
2021/12/17 14:35:08;;;;;;;;;;;8.2;60.3;;;;;;;;;
2021/12/17 14:40:23;;;;;;;;;;;8.2;60.2;;;;;;;;;
2021/12/17 14:45:09;;;;;;;;;;;8.0;60.6;;;;;;;;;
2021/12/17 15:00:32;;;;;;;;;;;7.9;60.7;;;;;;;;;
2021/12/17 15:05:08;;;;;;;;;;;7.9;61.0;;;;;;;;;
2021/12/17 15:10:09;;;;;;;;;;;7.7;61.4;;;;;;;;;
2021/12/17 15:15:09;;;;;;;;;;;7.5;62.0;;;;;;;;;
2021/12/17 15:20:10;;;;;;;;;;;7.4;62.6;;;;;;;;;
2021/12/17 15:25:09;;;;;;;;;;;7.3;63.2;;;;;;;;;
2021/12/17 15:30:09;;;;;;;;;;;7.5;61.8;;;;;;;;;
2021/12/17 15:35:10;;;;;;;;;;;7.4;62.6;;;;;;;;;
2021/12/17 15:40:09;;;;;;;;;;;7.5;62.1;;;;;;;;;
2021/12/17 15:45:08;;;;;;;;;;;7.2;62.1;;;;;;;;;
2021/12/17 15:50:10;;;;;;;;;;;7.3;61.8;;;;;;;;;
2021/12/17 15:55:08;;;;;;;;;;;7.1;62.6;;;;;;;;;
2021/12/17 16:00:08;;;;;;;;;;;7.0;63.1;;;;;;;;;
2021/12/17 16:05:09;;;;;;;;;;;7.0;62.7;;;;;;;;;
2021/12/17 16:11:08;;;;;;;;;;;7.0;62.5;;;;;;;;;
2021/12/17 16:25:08;;;;;;;;;;;6.8;63.9;;;;;;;;;
2021/12/17 16:30:08;;;;;;;;;;;6.8;63.6;;;;;;;;;
2021/12/17 16:35:08;;;;;;;;;;;6.8;64.0;;;;;;;;;
2021/12/17 16:40:08;;;;;;;;;;;6.7;64.5;;;;;;;;;
2021/12/17 16:45:21;;;;;;;;;;;6.7;65.5;;;;;;;;;
2021/12/17 16:50:09;;;;;;;;;;;6.4;67.0;;;;;;;;;
2021/12/17 16:55:08;;;;;;;;;;;6.3;67.8;;;;;;;;;
2021/12/17 17:00:08;;;;;;;;;;;6.4;67.4;;;;;;;;;
2021/12/17 17:05:09;;;;;;;;;;;6.2;68.6;;;;;;;;;
2021/12/17 17:10:09;;;;;;;;;;;6.1;68.7;;;;;;;;;
2021/12/17 17:15:13;;;;;;;;;;;6.3;68.0;;;;;;;;;
2021/12/17 17:20:08;;;;;;;;;;;6.2;68.0;;;;;;;;;
2021/12/17 17:25:08;;;;;;;;;;;6.3;67.8;;;;;;;;;
2021/12/17 17:30:08;;;;;;;;;;;6.3;67.3;;;;;;;;;
2021/12/17 17:35:09;;;;;;;;;;;6.3;67.5;;;;;;;;;
2021/12/17 17:40:09;;;;;;;;;;;6.4;67.3;;;;;;;;;
2021/12/17 17:45:08;;;;;;;;;;;6.3;67.6;;;;;;;;;
2021/12/17 17:50:08;;;;;;;;;;;6.1;68.1;;;;;;;;;
2021/12/17 17:55:08;;;;;;;;;;;6.1;67.6;;;;;;;;;
2021/12/17 18:00:08;;;;;;;;;;;6.0;68.1;;;;;;;;;
2021/12/17 18:05:12;;;;;;;;;;;6.1;67.7;;;;;;;;;
2021/12/17 18:10:08;;;;;;;;;;;6.0;68.4;;;;;;;;;
2021/12/17 18:15:08;;;;;;;;;;;5.9;68.5;;;;;;;;;
2021/12/17 18:20:12;;;;;;;;;;;5.8;68.3;;;;;;;;;
2021/12/17 18:25:08;;;;;;;;;;;5.8;69.1;;;;;;;;;
2021/12/17 18:30:10;;;;;;;;;;;5.6;69.4;;;;;;;;;
2021/12/17 18:35:09;;;;;;;;;;;5.6;69.8;;;;;;;;;
2021/12/17 18:40:11;;;;;;;;;;;5.7;69.2;;;;;;;;;
2021/12/17 18:45:08;;;;;;;;;;;5.6;68.7;;;;;;;;;
2021/12/17 18:50:08;;;;;;;;;;;5.6;68.6;;;;;;;;;
2021/12/17 18:55:08;;;;;;;;;;;5.5;68.5;;;;;;;;;
2021/12/17 19:00:09;;;;;;;;;;;5.3;69.0;;;;;;;;;
2021/12/17 19:05:08;;;;;;;;;;;5.4;68.2;;;;;;;;;
2021/12/17 19:10:08;;;;;;;;;;;5.3;68.0;;;;;;;;;
2021/12/17 19:15:08;;;;;;;;;;;5.5;68.3;;;;;;;;;
2021/12/17 19:20:13;;;;;;;;;;;5.4;68.3;;;;;;;;;
2021/12/17 19:25:10;;;;;;;;;;;5.2;68.5;;;;;;;;;
2021/12/17 19:30:09;;;;;;;;;;;5.2;68.5;;;;;;;;;
2021/12/17 19:35:09;;;;;;;;;;;5.3;68.3;;;;;;;;;
2021/12/17 19:40:09;;;;;;;;;;;5.2;68.7;;;;;;;;;
2021/12/17 19:45:08;;;;;;;;;;;5.1;68.5;;;;;;;;;
2021/12/17 19:50:09;;;;;;;;;;;5.1;68.2;;;;;;;;;
2021/12/17 19:55:08;;;;;;;;;;;5.0;67.6;;;;;;;;;
2021/12/17 20:00:10;;;;;;;;;;;4.9;68.1;;;;;;;;;
2021/12/17 20:05:09;;;;;;;;;;;4.9;68.4;;;;;;;;;
2021/12/17 20:10:08;;;;;;;;;;;4.8;68.7;;;;;;;;;
2021/12/17 20:15:08;;;;;;;;;;;4.8;69.0;;;;;;;;;
2021/12/17 20:20:08;;;;;;;;;;;4.8;67.6;;;;;;;;;
2021/12/17 20:25:09;;;;;;;;;;;4.6;68.9;;;;;;;;;
2021/12/17 20:30:11;;;;;;;;;;;4.6;68.6;;;;;;;;;
2021/12/17 20:35:09;;;;;;;;;;;4.8;68.2;;;;;;;;;
2021/12/17 20:40:09;;;;;;;;;;;4.7;68.8;;;;;;;;;
2021/12/17 20:45:09;;;;;;;;;;;4.6;69.8;;;;;;;;;
2021/12/17 20:50:13;;;;;;;;;;;4.6;69.6;;;;;;;;;
2021/12/17 20:55:09;;;;;;;;;;;4.6;68.7;;;;;;;;;
2021/12/17 21:00:09;;;;;;;;;;;4.5;68.9;;;;;;;;;
2021/12/17 21:05:08;;;;;;;;;;;4.5;68.6;;;;;;;;;
2021/12/17 21:10:09;;;;;;;;;;;4.3;69.2;;;;;;;;;
2021/12/17 21:15:09;;;;;;;;;;;4.3;68.7;;;;;;;;;
2021/12/17 21:20:09;;;;;;;;;;;4.2;69.3;;;;;;;;;
2021/12/17 21:25:08;;;;;;;;;;;4.3;68.6;;;;;;;;;
2021/12/17 21:30:09;;;;;;;;;;;4.2;68.9;;;;;;;;;
2021/12/17 21:35:16;;;;;;;;;;;4.2;68.9;;;;;;;;;
2021/12/17 21:40:08;;;;;;;;;;;4.1;69.5;;;;;;;;;
2021/12/17 21:45:08;;;;;;;;;;;4.1;69.2;;;;;;;;;
2021/12/17 21:50:09;;;;;;;;;;;4.1;68.7;;;;;;;;;
2021/12/17 21:55:09;;;;;;;;;;;4.1;68.9;;;;;;;;;
2021/12/17 22:00:10;;;;;;;;;;;4.0;68.9;;;;;;;;;
2021/12/17 22:05:09;;;;;;;;;;;4.0;68.7;;;;;;;;;
2021/12/17 22:10:24;;;;;;;;;;;3.8;69.0;;;;;;;;;
2021/12/17 22:15:08;;;;;;;;;;;3.9;69.5;;;;;;;;;
2021/12/17 22:20:20;;;;;;;;;;;3.9;68.8;;;;;;;;;
2021/12/17 22:25:07;;;;;;;;;;;3.8;68.4;;;;;;;;;
2021/12/17 22:30:08;;;;;;;;;;;3.8;67.8;;;;;;;;;
2021/12/17 22:35:09;;;;;;;;;;;3.8;68.2;;;;;;;;;
2021/12/17 22:40:09;;;;;;;;;;;3.7;68.7;;;;;;;;;
2021/12/17 22:45:08;;;;;;;;;;;3.7;68.2;;;;;;;;;
2021/12/17 22:50:08;;;;;;;;;;;3.8;68.8;;;;;;;;;
2021/12/17 22:55:08;;;;;;;;;;;3.7;69.4;;;;;;;;;
2021/12/17 23:00:12;;;;;;;;;;;3.8;69.5;;;;;;;;;
2021/12/17 23:05:08;;;;;;;;;;;3.7;69.8;;;;;;;;;
2021/12/17 23:10:09;;;;;;;;;;;3.8;69.7;;;;;;;;;
2021/12/17 23:15:08;;;;;;;;;;;3.7;70.7;;;;;;;;;
2021/12/17 23:20:08;;;;;;;;;;;3.8;69.9;;;;;;;;;
2021/12/17 23:25:08;;;;;;;;;;;3.8;70.4;;;;;;;;;
2021/12/17 23:30:09;;;;;;;;;;;3.8;69.8;;;;;;;;;
2021/12/17 23:35:15;;;;;;;;;;;3.8;70.5;;;;;;;;;
2021/12/17 23:40:08;;;;;;;;;;;3.8;70.4;;;;;;;;;
2021/12/17 23:45:08;;;;;;;;;;;3.8;70.6;;;;;;;;;
2021/12/17 23:50:08;;;;;;;;;;;3.7;71.3;;;;;;;;;
2021/12/17 23:55:08;;;;;;;;;;;3.7;71.7;;;;;;;;;
